createdAt,value
2018-08-12T00:00:30.190Z,17.20
2018-08-12T00:03:05.993Z,17.20
2018-08-12T00:05:41.225Z,17.20
2018-08-12T00:08:16.431Z,17.20
2018-08-12T00:10:51.527Z,17.10
2018-08-12T00:13:33.391Z,17.10
2018-08-12T00:16:08.891Z,17.10
2018-08-12T00:18:44.310Z,17.00
2018-08-12T00:21:20.113Z,16.90
2018-08-12T00:23:55.615Z,16.90
2018-08-12T00:26:30.629Z,16.80
2018-08-12T00:29:06.262Z,16.90
2018-08-12T00:31:41.072Z,16.90
2018-08-12T00:34:16.535Z,16.90
2018-08-12T00:36:51.602Z,16.90
2018-08-12T00:39:26.978Z,16.90
2018-08-12T00:42:02.384Z,16.90
2018-08-12T00:44:37.734Z,16.90
2018-08-12T00:47:12.999Z,16.80
2018-08-12T00:49:48.107Z,16.90
2018-08-12T00:52:23.363Z,16.90
2018-08-12T00:54:58.633Z,16.90
2018-08-12T00:57:33.608Z,16.90
2018-08-12T01:00:12.344Z,16.90
2018-08-12T01:02:47.293Z,16.90
2018-08-12T01:05:23.395Z,16.90
2018-08-12T01:07:59.234Z,16.90
2018-08-12T01:10:33.909Z,17.00
2018-08-12T01:13:08.991Z,16.90
2018-08-12T01:15:44.404Z,16.90
2018-08-12T01:18:19.677Z,16.90
2018-08-12T01:20:54.782Z,16.80
2018-08-12T01:23:29.854Z,16.80
2018-08-12T01:26:06.292Z,16.70
2018-08-12T01:28:41.718Z,16.60
2018-08-12T01:31:16.857Z,16.70
2018-08-12T01:33:51.863Z,16.60
2018-08-12T01:36:27.250Z,16.60
2018-08-12T01:39:02.653Z,16.60
2018-08-12T01:41:38.257Z,16.60
2018-08-12T01:44:13.568Z,16.70
2018-08-12T01:46:49.609Z,16.60
2018-08-12T01:49:25.254Z,16.60
2018-08-12T01:52:00.427Z,16.60
2018-08-12T01:54:36.153Z,16.60
2018-08-12T01:57:11.605Z,16.50
2018-08-12T01:59:46.477Z,16.50
2018-08-12T02:02:21.684Z,16.50
2018-08-12T02:04:57.019Z,16.40
2018-08-12T02:07:32.242Z,16.40
2018-08-12T02:10:08.102Z,16.50
2018-08-12T02:12:43.040Z,16.40
2018-08-12T02:15:18.363Z,16.40
2018-08-12T02:17:53.488Z,16.40
2018-08-12T02:20:28.559Z,16.40
2018-08-12T02:23:03.831Z,16.40
2018-08-12T02:25:39.308Z,16.40
2018-08-12T02:28:14.118Z,16.40
2018-08-12T02:30:49.624Z,16.40
2018-08-12T02:33:24.551Z,16.30
2018-08-12T02:35:59.769Z,16.30
2018-08-12T02:38:34.593Z,16.30
2018-08-12T02:41:09.733Z,16.30
2018-08-12T02:43:44.710Z,16.30
2018-08-12T02:46:19.784Z,16.30
2018-08-12T02:48:54.811Z,16.20
2018-08-12T02:51:30.150Z,16.30
2018-08-12T02:54:05.530Z,16.30
2018-08-12T02:56:40.541Z,16.20
2018-08-12T02:59:15.683Z,16.20
2018-08-12T03:01:51.211Z,16.20
2018-08-12T03:04:26.870Z,16.20
2018-08-12T03:07:02.741Z,16.20
2018-08-12T03:09:37.974Z,16.10
2018-08-12T03:12:13.574Z,16.10
2018-08-12T03:14:48.358Z,16.10
2018-08-12T03:17:24.105Z,16.10
2018-08-12T03:19:59.496Z,16.10
2018-08-12T03:22:34.338Z,16.10
2018-08-12T03:25:10.738Z,16.00
2018-08-12T03:27:46.147Z,16.00
2018-08-12T03:30:21.451Z,16.00
2018-08-12T03:32:56.761Z,16.00
2018-08-12T03:35:31.766Z,16.00
2018-08-12T03:38:07.067Z,15.90
2018-08-12T03:40:42.378Z,16.00
2018-08-12T03:43:17.914Z,15.90
2018-08-12T03:45:53.122Z,15.90
2018-08-12T03:48:28.609Z,15.90
2018-08-12T03:51:03.658Z,15.90
2018-08-12T03:53:39.052Z,15.90
2018-08-12T03:56:14.318Z,15.90
2018-08-12T03:58:49.620Z,15.90
2018-08-12T04:01:24.460Z,15.90
2018-08-12T04:03:59.445Z,15.80
2018-08-12T04:06:34.599Z,15.90
2018-08-12T04:09:10.827Z,15.90
2018-08-12T04:11:45.738Z,15.80
2018-08-12T04:14:20.695Z,15.80
2018-08-12T04:16:58.807Z,15.80
2018-08-12T04:19:33.774Z,15.80
2018-08-12T04:22:08.936Z,15.80
2018-08-12T04:24:43.679Z,15.80
2018-08-12T04:27:18.893Z,15.80
2018-08-12T04:29:53.955Z,15.80
2018-08-12T04:32:28.927Z,15.80
2018-08-12T04:35:04.816Z,15.80
2018-08-12T04:37:40.413Z,15.80
2018-08-12T04:40:15.497Z,15.80
2018-08-12T04:42:50.823Z,15.90
2018-08-12T04:45:25.730Z,15.80
2018-08-12T04:48:01.152Z,15.90
2018-08-12T04:50:35.986Z,15.90
2018-08-12T04:53:11.334Z,15.90
2018-08-12T04:55:46.120Z,15.90
2018-08-12T04:58:21.203Z,16.00
2018-08-12T05:00:56.581Z,15.90
2018-08-12T05:03:31.524Z,16.00
2018-08-12T05:06:06.392Z,16.00
2018-08-12T05:08:41.568Z,16.00
2018-08-12T05:11:16.744Z,16.00
2018-08-12T05:13:51.758Z,16.10
2018-08-12T05:16:33.624Z,16.10
2018-08-12T05:19:09.329Z,16.10
2018-08-12T05:21:44.314Z,16.10
2018-08-12T05:24:19.442Z,16.10
2018-08-12T05:26:54.425Z,16.10
2018-08-12T05:29:29.414Z,16.10
2018-08-12T05:32:04.632Z,16.10
2018-08-12T05:34:39.690Z,16.10
2018-08-12T05:37:14.783Z,16.10
2018-08-12T05:39:49.860Z,16.10
2018-08-12T05:42:24.926Z,16.10
2018-08-12T05:45:00.011Z,16.20
2018-08-12T05:47:35.629Z,16.20
2018-08-12T05:50:11.141Z,16.30
2018-08-12T05:52:46.299Z,16.40
2018-08-12T05:55:21.548Z,16.40
2018-08-12T05:57:56.942Z,16.50
2018-08-12T06:00:31.864Z,16.60
2018-08-12T06:03:07.341Z,16.60
2018-08-12T06:05:42.438Z,16.70
2018-08-12T06:08:17.479Z,16.80
2018-08-12T06:10:52.862Z,16.80
2018-08-12T06:13:28.088Z,16.80
2018-08-12T06:16:03.194Z,16.70
2018-08-12T06:18:38.158Z,16.70
2018-08-12T06:21:13.306Z,16.70
2018-08-12T06:23:48.858Z,16.70
2018-08-12T06:26:24.017Z,16.70
2018-08-12T06:28:59.212Z,16.70
2018-08-12T06:31:34.240Z,16.70
2018-08-12T06:34:09.512Z,16.70
2018-08-12T06:36:44.558Z,16.80
2018-08-12T06:39:19.533Z,16.90
2018-08-12T06:41:54.564Z,17.00
2018-08-12T06:44:30.039Z,17.00
2018-08-12T06:47:05.600Z,17.10
2018-08-12T06:49:40.766Z,17.20
2018-08-12T06:52:16.166Z,17.20
2018-08-12T06:54:51.430Z,17.30
2018-08-12T06:57:26.763Z,17.40
2018-08-12T07:00:01.802Z,17.40
2018-08-12T07:02:36.980Z,17.50
2018-08-12T07:05:13.616Z,17.50
2018-08-12T07:07:55.276Z,17.60
2018-08-12T07:10:36.694Z,17.60
2018-08-12T07:13:12.247Z,17.70
2018-08-12T07:15:47.751Z,17.70
2018-08-12T07:18:23.078Z,17.80
2018-08-12T07:20:58.027Z,17.90
2018-08-12T07:23:33.987Z,18.00
2018-08-12T07:26:09.707Z,18.00
2018-08-12T07:28:44.707Z,18.10
2018-08-12T07:31:19.890Z,18.20
2018-08-12T07:33:55.234Z,18.30
2018-08-12T07:36:30.258Z,18.40
2018-08-12T07:39:07.514Z,18.40
2018-08-12T07:41:42.486Z,18.50
2018-08-12T07:44:18.077Z,18.50
2018-08-12T07:46:53.631Z,18.50
2018-08-12T07:49:28.930Z,18.60
2018-08-12T07:52:03.868Z,18.60
2018-08-12T07:54:38.928Z,18.70
2018-08-12T07:57:13.992Z,18.70
2018-08-12T07:59:48.950Z,18.80
2018-08-12T08:02:25.637Z,18.80
2018-08-12T08:05:00.512Z,18.80
2018-08-12T08:07:36.095Z,18.90
2018-08-12T08:10:14.735Z,18.90
2018-08-12T08:12:49.694Z,18.90
2018-08-12T08:15:24.687Z,19.00
2018-08-12T08:18:00.148Z,19.00
2018-08-12T08:20:35.218Z,19.00
2018-08-12T08:23:10.630Z,19.10
2018-08-12T08:25:45.878Z,19.10
2018-08-12T08:28:21.128Z,19.20
2018-08-12T08:30:56.288Z,19.30
2018-08-12T08:33:32.261Z,19.30
2018-08-12T08:36:07.986Z,19.30
2018-08-12T08:38:43.150Z,19.40
2018-08-12T08:41:18.159Z,19.40
2018-08-12T08:43:53.081Z,19.40
2018-08-12T08:46:28.293Z,19.50
2018-08-12T08:49:03.554Z,19.60
2018-08-12T08:51:38.737Z,19.60
2018-08-12T08:54:14.049Z,19.60
2018-08-12T08:56:49.229Z,19.70
2018-08-12T08:59:24.445Z,19.80
2018-08-12T09:01:59.774Z,19.80
2018-08-12T09:04:34.817Z,19.90
2018-08-12T09:07:10.209Z,20.00
2018-08-12T09:09:45.243Z,20.10
2018-08-12T09:12:20.317Z,20.30
2018-08-12T09:14:55.365Z,20.40
2018-08-12T09:17:30.752Z,20.50
2018-08-12T09:20:07.792Z,20.50
2018-08-12T09:22:43.835Z,20.60
2018-08-12T09:25:19.275Z,20.70
2018-08-12T09:27:54.152Z,20.90
2018-08-12T09:30:29.290Z,21.00
2018-08-12T09:33:04.510Z,21.00
2018-08-12T09:35:39.466Z,21.10
2018-08-12T09:38:14.567Z,21.20
2018-08-12T09:40:49.544Z,21.20
2018-08-12T09:43:24.449Z,21.30
2018-08-12T09:45:59.731Z,21.40
2018-08-12T09:48:34.723Z,21.50
2018-08-12T09:51:09.904Z,21.50
2018-08-12T09:53:45.238Z,21.50
2018-08-12T09:56:21.610Z,21.60
2018-08-12T09:58:57.162Z,21.70
2018-08-12T10:01:32.149Z,21.80
2018-08-12T10:04:07.894Z,22.00
2018-08-12T10:06:43.912Z,22.10
2018-08-12T10:09:19.356Z,22.20
2018-08-12T10:11:54.708Z,22.20
2018-08-12T10:14:29.624Z,22.30
2018-08-12T10:17:04.705Z,22.40
2018-08-12T10:19:40.034Z,22.50
2018-08-12T10:22:15.337Z,22.60
2018-08-12T10:24:50.217Z,22.60
2018-08-12T10:27:25.706Z,22.60
2018-08-12T10:30:01.082Z,22.70
2018-08-12T10:32:36.226Z,22.70
2018-08-12T10:35:13.696Z,22.70
2018-08-12T10:37:48.860Z,22.80
2018-08-12T10:40:23.711Z,23.00
2018-08-12T10:42:58.701Z,23.10
2018-08-12T10:45:33.923Z,23.10
2018-08-12T10:48:09.118Z,23.20
2018-08-12T10:50:44.062Z,23.20
2018-08-12T10:53:20.054Z,23.30
2018-08-12T10:55:55.660Z,23.30
2018-08-12T10:58:31.266Z,23.40
2018-08-12T11:01:06.732Z,23.40
2018-08-12T11:03:42.222Z,23.40
2018-08-12T11:06:17.826Z,23.60
2018-08-12T11:08:53.045Z,23.70
2018-08-12T11:11:28.378Z,23.70
2018-08-12T11:14:04.558Z,23.80
2018-08-12T11:16:40.831Z,23.80
2018-08-12T11:19:16.357Z,24.00
2018-08-12T11:21:51.429Z,24.10
2018-08-12T11:24:26.657Z,24.20
2018-08-12T11:27:01.746Z,24.30
2018-08-12T11:29:36.768Z,24.30
2018-08-12T11:32:12.007Z,24.30
2018-08-12T11:34:47.313Z,24.30
2018-08-12T11:37:22.350Z,24.30
2018-08-12T11:39:57.522Z,24.40
2018-08-12T11:42:33.595Z,24.40
2018-08-12T11:45:12.141Z,24.60
2018-08-12T11:47:48.172Z,24.60
2018-08-12T11:50:23.166Z,24.70
2018-08-12T11:52:58.874Z,24.80
2018-08-12T11:55:34.371Z,24.90
2018-08-12T11:58:10.191Z,25.00
2018-08-12T12:00:45.521Z,25.00
2018-08-12T12:03:21.630Z,25.00
2018-08-12T12:05:56.947Z,25.00
2018-08-12T12:08:32.535Z,25.10
2018-08-12T12:11:08.688Z,25.10
2018-08-12T12:13:43.927Z,25.20
2018-08-12T12:16:19.164Z,25.30
2018-08-12T12:18:54.377Z,25.50
2018-08-12T12:21:30.009Z,25.60
2018-08-12T12:24:05.065Z,25.70
2018-08-12T12:26:40.495Z,25.70
2018-08-12T12:29:15.771Z,25.80
2018-08-12T12:31:51.411Z,25.80
2018-08-12T12:34:26.519Z,25.90
2018-08-12T12:37:01.753Z,26.00
2018-08-12T12:39:37.643Z,26.00
2018-08-12T12:42:12.855Z,26.10
2018-08-12T12:44:48.202Z,26.10
2018-08-12T12:47:24.329Z,26.20
2018-08-12T12:49:59.326Z,26.30
2018-08-12T12:52:34.867Z,26.40
2018-08-12T12:55:10.427Z,26.40
2018-08-12T12:57:45.421Z,26.50
2018-08-12T13:00:21.867Z,26.50
2018-08-12T13:02:56.786Z,26.60
2018-08-12T13:05:32.346Z,26.70
2018-08-12T13:08:07.804Z,26.80
2018-08-12T13:10:42.864Z,26.90
2018-08-12T13:13:18.103Z,27.00
2018-08-12T13:15:53.788Z,27.00
2018-08-12T13:18:28.824Z,27.00
2018-08-12T13:21:04.050Z,27.10
2018-08-12T13:23:39.066Z,27.20
2018-08-12T13:26:14.173Z,27.20
2018-08-12T13:28:49.215Z,27.20
2018-08-12T13:31:24.482Z,27.30
2018-08-12T13:33:59.410Z,27.40
2018-08-12T13:36:34.925Z,27.30
2018-08-12T13:39:13.108Z,27.30
2018-08-12T13:41:48.157Z,27.30
2018-08-12T13:44:23.168Z,27.30
2018-08-12T13:46:58.270Z,27.40
2018-08-12T13:49:33.836Z,27.40
2018-08-12T13:52:09.496Z,27.40
2018-08-12T13:54:45.197Z,27.50
2018-08-12T13:57:20.715Z,27.50
2018-08-12T13:59:56.428Z,27.70
2018-08-12T14:02:31.410Z,27.80
2018-08-12T14:05:07.432Z,27.80
2018-08-12T14:07:42.952Z,27.90
2018-08-12T14:10:18.833Z,27.90
2018-08-12T14:12:59.215Z,27.80
2018-08-12T14:15:34.191Z,27.80
2018-08-12T14:18:09.732Z,27.70
2018-08-12T14:20:45.010Z,27.70
2018-08-12T14:23:20.247Z,27.60
2018-08-12T14:25:55.197Z,27.60
2018-08-12T14:28:30.175Z,27.60
2018-08-12T14:31:05.555Z,27.60
2018-08-12T14:33:40.785Z,27.50
2018-08-12T14:36:15.904Z,27.40
2018-08-12T14:38:51.447Z,27.30
2018-08-12T14:41:26.675Z,27.20
2018-08-12T14:44:08.953Z,27.30
2018-08-12T14:46:45.113Z,27.40
2018-08-12T14:49:20.662Z,27.60
2018-08-12T14:51:55.846Z,27.70
2018-08-12T14:54:30.948Z,27.80
2018-08-12T14:57:06.912Z,27.90
2018-08-12T14:59:42.500Z,27.90
2018-08-12T15:02:17.491Z,28.00
2018-08-12T15:04:52.800Z,28.20
2018-08-12T15:07:28.166Z,28.30
2018-08-12T15:10:03.766Z,28.50
2018-08-12T15:12:38.976Z,28.60
2018-08-12T15:15:15.588Z,28.60
2018-08-12T15:17:50.911Z,28.60
2018-08-12T15:20:26.004Z,28.60
2018-08-12T15:23:01.363Z,28.60
2018-08-12T15:25:36.953Z,28.60
2018-08-12T15:28:11.984Z,28.70
2018-08-12T15:30:47.300Z,28.80
2018-08-12T15:33:22.325Z,28.80
2018-08-12T15:35:57.621Z,28.90
2018-08-12T15:38:33.300Z,28.80
2018-08-12T15:41:08.595Z,28.90
2018-08-12T15:43:43.584Z,29.00
2018-08-12T15:46:20.036Z,29.10
2018-08-12T15:48:54.886Z,29.10
2018-08-12T15:51:30.254Z,29.10
2018-08-12T15:54:06.399Z,29.10
2018-08-12T15:56:41.640Z,29.10
2018-08-12T15:59:17.651Z,29.10
2018-08-12T16:01:52.958Z,29.20
2018-08-12T16:04:28.189Z,29.20
2018-08-12T16:07:07.907Z,29.10
2018-08-12T16:09:43.553Z,29.00
2018-08-12T16:12:19.192Z,28.80
2018-08-12T16:14:54.157Z,28.70
2018-08-12T16:17:31.319Z,28.80
2018-08-12T16:20:07.386Z,28.80
2018-08-12T16:22:42.864Z,28.90
2018-08-12T16:25:19.533Z,28.90
2018-08-12T16:27:55.017Z,29.00
2018-08-12T16:30:30.388Z,29.00
2018-08-12T16:33:06.877Z,29.20
2018-08-12T16:35:42.020Z,29.30
2018-08-12T16:38:17.198Z,29.40
2018-08-12T16:40:53.156Z,29.50
2018-08-12T16:43:28.333Z,29.50
2018-08-12T16:46:03.865Z,29.50
2018-08-12T16:48:38.994Z,29.40
2018-08-12T16:51:14.067Z,29.30
2018-08-12T16:53:49.581Z,29.20
2018-08-12T16:56:25.354Z,29.10
2018-08-12T16:59:00.675Z,28.80
2018-08-12T17:01:36.598Z,28.70
2018-08-12T17:04:11.404Z,28.70
2018-08-12T17:06:46.645Z,28.70
2018-08-12T17:09:21.961Z,28.60
2018-08-12T17:11:57.133Z,28.60
2018-08-12T17:14:32.449Z,28.60
2018-08-12T17:17:08.053Z,28.60
2018-08-12T17:19:43.837Z,28.60
2018-08-12T17:22:19.185Z,28.50
2018-08-12T17:24:54.759Z,28.40
2018-08-12T17:27:30.160Z,28.30
2018-08-12T17:30:07.367Z,28.10
2018-08-12T17:32:42.363Z,28.00
2018-08-12T17:35:18.809Z,28.00
2018-08-12T17:37:54.243Z,28.00
2018-08-12T17:40:30.418Z,27.90
2018-08-12T17:43:06.274Z,27.90
2018-08-12T17:45:42.202Z,27.80
2018-08-12T17:48:17.777Z,27.70
2018-08-12T17:50:54.759Z,27.60
2018-08-12T17:53:30.334Z,27.50
2018-08-12T17:56:06.859Z,27.40
2018-08-12T17:58:41.792Z,27.40
2018-08-12T18:01:17.500Z,27.20
2018-08-12T18:03:54.082Z,27.20
2018-08-12T18:06:29.450Z,27.10
2018-08-12T18:09:06.170Z,27.00
2018-08-12T18:11:41.435Z,26.90
2018-08-12T18:14:16.272Z,26.90
2018-08-12T18:16:52.014Z,26.80
2018-08-12T18:19:27.238Z,26.70
2018-08-12T18:22:02.774Z,26.60
2018-08-12T18:24:37.882Z,26.60
2018-08-12T18:27:12.957Z,26.50
2018-08-12T18:29:47.803Z,26.40
2018-08-12T18:32:23.349Z,26.30
2018-08-12T18:34:58.577Z,26.30
2018-08-12T18:37:34.246Z,26.20
2018-08-12T18:40:10.581Z,26.10
2018-08-12T18:42:45.917Z,26.10
2018-08-12T18:45:21.343Z,26.00
2018-08-12T18:47:56.854Z,25.90
2018-08-12T18:50:32.184Z,25.80
2018-08-12T18:53:07.670Z,25.80
2018-08-12T18:55:43.896Z,25.70
2018-08-12T18:58:19.472Z,25.60
2018-08-12T19:00:54.407Z,25.50
2018-08-12T19:03:29.566Z,25.50
2018-08-12T19:06:05.320Z,25.40
2018-08-12T19:08:40.296Z,25.40
2018-08-12T19:11:15.739Z,25.40
2018-08-12T19:13:51.379Z,25.20
2018-08-12T19:16:26.859Z,25.20
2018-08-12T19:19:01.959Z,25.10
2018-08-12T19:21:37.523Z,25.00
2018-08-12T19:24:12.373Z,24.90
2018-08-12T19:26:47.747Z,24.80
2018-08-12T19:29:23.048Z,24.80
2018-08-12T19:31:58.286Z,24.70
2018-08-12T19:34:34.069Z,24.60
2018-08-12T19:37:09.147Z,24.60
2018-08-12T19:39:44.312Z,24.50
2018-08-12T19:42:23.892Z,24.50
2018-08-12T19:44:59.097Z,24.40
2018-08-12T19:47:35.457Z,24.40
2018-08-12T19:50:10.869Z,24.30
2018-08-12T19:52:45.949Z,24.30
2018-08-12T19:55:21.451Z,24.30
2018-08-12T19:57:56.408Z,24.20
2018-08-12T20:00:31.951Z,24.20
2018-08-12T20:03:07.723Z,24.20
2018-08-12T20:05:43.857Z,24.10
2018-08-12T20:08:20.748Z,24.10
2018-08-12T20:10:56.841Z,24.00
2018-08-12T20:13:32.677Z,24.00
2018-08-12T20:16:08.238Z,24.00
2018-08-12T20:18:43.724Z,23.90
2018-08-12T20:21:18.984Z,23.90
2018-08-12T20:23:54.074Z,23.80
2018-08-12T20:26:30.266Z,23.80
2018-08-12T20:29:05.755Z,23.70
2018-08-12T20:31:41.224Z,23.70
2018-08-12T20:34:16.153Z,23.60
2018-08-12T20:36:51.364Z,23.60
2018-08-12T20:39:26.425Z,23.50
2018-08-12T20:42:02.003Z,23.50
2018-08-12T20:44:37.028Z,23.40
2018-08-12T20:47:12.547Z,23.30
2018-08-12T20:49:47.561Z,23.20
2018-08-12T20:52:23.969Z,23.20
2018-08-12T20:54:59.221Z,23.10
2018-08-12T20:57:34.627Z,23.10
2018-08-12T21:00:10.663Z,23.00
2018-08-12T21:02:46.253Z,22.90
2018-08-12T21:05:22.111Z,22.80
2018-08-12T21:07:57.502Z,22.70
2018-08-12T21:10:33.217Z,22.70
2018-08-12T21:13:08.347Z,22.60
2018-08-12T21:15:43.486Z,22.60
2018-08-12T21:18:18.908Z,22.50
2018-08-12T21:20:54.420Z,22.50
2018-08-12T21:23:29.910Z,22.50
2018-08-12T21:26:05.137Z,22.40
2018-08-12T21:28:40.460Z,22.40
2018-08-12T21:31:15.578Z,22.40
2018-08-12T21:33:51.172Z,22.30
2018-08-12T21:36:26.545Z,22.30
2018-08-12T21:39:02.084Z,22.30
2018-08-12T21:41:37.431Z,22.20
2018-08-12T21:44:12.994Z,22.20
2018-08-12T21:46:49.666Z,22.20
2018-08-12T21:49:25.286Z,22.10
2018-08-12T21:52:00.521Z,22.10
2018-08-12T21:54:36.132Z,22.10
2018-08-12T21:57:11.190Z,22.00
2018-08-12T21:59:47.014Z,22.00
2018-08-12T22:02:22.442Z,21.90
2018-08-12T22:04:58.961Z,21.90
2018-08-12T22:07:34.172Z,21.90
2018-08-12T22:10:09.393Z,21.90
2018-08-12T22:12:44.476Z,21.80
2018-08-12T22:15:19.508Z,21.80
2018-08-12T22:17:54.832Z,21.80
2018-08-12T22:20:30.207Z,21.70
2018-08-12T22:23:05.326Z,21.70
2018-08-12T22:25:40.634Z,21.70
2018-08-12T22:28:15.721Z,21.70
2018-08-12T22:30:51.404Z,21.60
2018-08-12T22:33:27.222Z,21.60
2018-08-12T22:36:03.470Z,21.60
2018-08-12T22:38:38.449Z,21.60
2018-08-12T22:41:14.505Z,21.60
2018-08-12T22:43:49.812Z,21.50
2018-08-12T22:46:25.146Z,21.50
2018-08-12T22:49:00.400Z,21.50
2018-08-12T22:51:35.701Z,21.50
2018-08-12T22:54:11.752Z,21.50
2018-08-12T22:56:47.244Z,21.50
2018-08-12T22:59:22.195Z,21.50
2018-08-12T23:01:58.228Z,21.40
2018-08-12T23:04:33.292Z,21.40
2018-08-12T23:07:08.423Z,21.40
2018-08-12T23:09:43.907Z,21.40
2018-08-12T23:12:19.471Z,21.30
2018-08-12T23:15:00.365Z,21.30
2018-08-12T23:17:35.581Z,21.30
2018-08-12T23:20:11.140Z,21.20
2018-08-12T23:22:46.394Z,21.20
2018-08-12T23:25:21.549Z,21.10
2018-08-12T23:27:57.551Z,21.20
2018-08-12T23:30:32.846Z,21.20
2018-08-12T23:33:08.547Z,21.20
2018-08-12T23:35:43.835Z,21.20
2018-08-12T23:38:19.214Z,21.20
2018-08-12T23:40:54.826Z,21.20
2018-08-12T23:43:29.865Z,21.20
2018-08-12T23:46:05.419Z,21.20
2018-08-12T23:48:41.191Z,21.30
2018-08-12T23:51:16.143Z,21.30
2018-08-12T23:53:51.982Z,21.30
2018-08-12T23:56:27.418Z,21.30
2018-08-12T23:59:02.766Z,21.30
